Saxon, Washington
Current Conditions -  °F | °C
As of 9:53 PM on Friday 19 Dec 2014 (Local Time) from KBLI Reporting Station
Clear Clear  
Wind Chill: 44°   Ceiling: Unl
Heat Index: 49°   Visibility: 10mi
Dew Point: 37°   Wind: 12mph
Humidity: 64%   Direction: 130°SE
Pressure: 29.83"   Gusts: 25mph
Location:  48.6897°N, 122.171°W
Report Text: KBLI 200553Z 13010G22KT 10SM CLR 09/03 A2983 RMK AO2 SLP110 T00940028 10100 20089 57019
Loading
Personal Weather Stations






























Interactive Weather Map New forecast layout! Learn more

10-Day Weather Forecast

Advertisements
Track Severe Weather on mobile